Time;durP1;ratioP1;P1;durP2;ratioP2;P2;SDS_P1;SDS_P2;PMS_P1;PMS_P2;Temp;Humidity;BMP_temperature;BMP_pressure;BME280_temperature;BME280_humidity;BME280_pressure;Samples;Min_cycle;Max_cycle;Signal;HPM_P1;HPM_P2
2023/09/10 00:00:14;;;;;;;16.93;10.10;;;19.00;99.90;;;;;;5053113;28;21037;-77
2023/09/10 00:02:41;;;;;;;12.10;9.70;;;19.00;99.90;;;;;;5046175;28;20462;-78
2023/09/10 00:05:08;;;;;;;14.67;9.30;;;19.00;99.90;;;;;;5052736;28;20475;-79
2023/09/10 00:07:35;;;;;;;12.50;10.20;;;19.00;99.90;;;;;;5054100;28;20470;-79
2023/09/10 00:10:02;;;;;;;12.40;8.63;;;19.00;99.90;;;;;;5054069;28;20474;-80
2023/09/10 00:12:30;;;;;;;20.60;10.73;;;19.00;99.90;;;;;;5053926;28;20488;-78
2023/09/10 00:14:56;;;;;;;15.90;10.23;;;19.10;99.90;;;;;;5053937;28;20446;-79
2023/09/10 00:17:23;;;;;;;14.33;10.17;;;18.90;99.90;;;;;;5053629;28;20432;-78
2023/09/10 00:19:50;;;;;;;14.60;10.20;;;18.80;99.90;;;;;;5053478;28;20451;-80
2023/09/10 00:22:17;;;;;;;12.03;10.30;;;18.80;99.90;;;;;;5053444;28;20464;-81
2023/09/10 00:24:43;;;;;;;11.90;10.47;;;18.80;99.90;;;;;;5053496;28;20404;-78
2023/09/10 00:27:10;;;;;;;13.17;10.07;;;18.60;99.90;;;;;;5052794;28;20465;-78
2023/09/10 00:29:38;;;;;;;16.53;10.50;;;18.60;99.90;;;;;;5053179;28;20465;-79
2023/09/10 00:32:05;;;;;;;15.10;10.57;;;18.70;99.90;;;;;;5053936;28;20441;-77
2023/09/10 00:34:32;;;;;;;14.30;10.50;;;18.50;99.90;;;;;;5053639;28;20452;-79
2023/09/10 00:36:59;;;;;;;15.33;11.23;;;18.50;99.90;;;;;;5053448;28;20427;-80
2023/09/10 00:39:26;;;;;;;14.27;10.87;;;18.50;99.90;;;;;;5053716;28;20504;-81
2023/09/10 00:41:53;;;;;;;22.07;11.70;;;18.40;99.90;;;;;;5053570;28;20481;-79
2023/09/10 00:44:19;;;;;;;17.77;11.43;;;18.50;99.90;;;;;;5052705;28;20453;-77
2023/09/10 00:46:47;;;;;;;14.40;10.63;;;18.40;99.90;;;;;;5052060;28;20451;-78
2023/09/10 00:49:14;;;;;;;14.90;10.80;;;18.40;99.90;;;;;;5046412;28;20265;-78
2023/09/10 00:51:41;;;;;;;12.43;9.50;;;18.40;99.90;;;;;;5052061;28;20445;-77
2023/09/10 00:54:08;;;;;;;17.73;10.60;;;18.40;99.90;;;;;;5051802;28;20460;-77
2023/09/10 00:56:34;;;;;;;12.20;10.27;;;18.30;99.90;;;;;;5052128;28;20446;-76
2023/09/10 00:59:02;;;;;;;11.37;10.17;;;18.30;99.90;;;;;;5047043;28;20469;-77
2023/09/10 01:01:29;;;;;;;15.37;11.00;;;18.20;99.90;;;;;;5046363;28;21053;-81
2023/09/10 01:03:57;;;;;;;12.20;10.40;;;18.20;99.90;;;;;;5047697;28;20460;-77
2023/09/10 01:06:24;;;;;;;16.03;9.97;;;18.20;99.90;;;;;;5046799;28;20476;-77
2023/09/10 01:08:51;;;;;;;14.37;10.20;;;18.10;99.90;;;;;;5049692;28;20451;-79
2023/09/10 01:11:25;;;;;;;15.73;10.57;;;18.10;99.90;;;;;;5050375;28;20445;-78
2023/09/10 01:13:58;;;;;;;12.67;10.37;;;18.00;99.90;;;;;;5049118;28;20490;-77
2023/09/10 01:16:32;;;;;;;17.77;10.40;;;18.00;99.90;;;;;;5046263;28;20503;-78
2023/09/10 01:19:08;;;;;;;16.60;10.60;;;18.00;99.90;;;;;;5053292;28;20476;-79
2023/09/10 01:21:45;;;;;;;13.33;9.90;;;18.00;99.90;;;;;;5044772;22;20863;-88
2023/09/10 01:24:29;;;;;;;23.23;11.00;;;18.00;99.90;;;;;;5031803;28;20440;-89
2023/09/10 01:26:58;;;;;;;16.23;10.23;;;18.00;99.90;;;;;;5033424;28;20484;-91
2023/09/10 01:29:26;;;;;;;14.20;9.83;;;;;;;;;;5039960;28;20453;-90
2023/09/10 01:31:58;;;;;;;16.77;11.07;;;18.00;99.90;;;;;;5031500;28;20445;-89
2023/09/10 01:34:29;;;;;;;14.27;10.40;;;18.00;99.90;;;;;;5031174;28;21011;-89
2023/09/10 01:37:05;;;;;;;15.47;10.77;;;18.00;99.90;;;;;;5031097;28;20481;-90
2023/09/10 01:39:36;;;;;;;15.70;10.57;;;18.00;99.90;;;;;;5031737;28;20813;-89
2023/09/10 01:42:06;;;;;;;17.67;11.00;;;18.00;99.90;;;;;;5031488;28;20489;-89
2023/09/10 01:44:35;;;;;;;14.90;10.70;;;18.00;99.90;;;;;;5031600;28;20469;-89
2023/09/10 01:47:03;;;;;;;15.53;10.93;;;18.00;99.90;;;;;;5040182;28;20488;-91
2023/09/10 01:52:12;;;;;;;12.93;10.23;;;17.90;99.90;;;;;;5120266;27;20560;-80
2023/09/10 01:54:39;;;;;;;12.50;10.47;;;17.90;99.90;;;;;;5134283;28;20488;-79
2023/09/10 01:57:06;;;;;;;13.70;10.97;;;17.90;99.90;;;;;;5133448;28;20480;-80
2023/09/10 01:59:32;;;;;;;16.83;11.30;;;17.90;99.90;;;;;;5133789;28;20449;-81
2023/09/10 02:01:59;;;;;;;19.90;10.40;;;18.00;99.90;;;;;;5133990;28;20449;-81
2023/09/10 02:04:26;;;;;;;16.13;10.90;;;18.00;99.90;;;;;;5133437;28;20442;-81
2023/09/10 02:06:52;;;;;;;16.13;11.60;;;17.80;99.90;;;;;;5133066;28;20476;-81
2023/09/10 02:09:20;;;;;;;13.97;10.13;;;17.70;99.90;;;;;;5116928;28;20417;-78
2023/09/10 02:11:47;;;;;;;16.50;11.40;;;17.70;99.90;;;;;;5133569;28;20500;-78
2023/09/10 02:14:14;;;;;;;15.40;11.03;;;17.90;99.90;;;;;;5133674;28;20409;-81
2023/09/10 02:16:40;;;;;;;17.00;10.73;;;17.70;99.90;;;;;;5133293;28;20417;-81
2023/09/10 02:19:07;;;;;;;18.10;11.03;;;17.70;99.90;;;;;;5133863;28;20457;-82
2023/09/10 02:21:34;;;;;;;17.43;11.87;;;17.70;99.90;;;;;;5133365;28;20449;-79
2023/09/10 02:24:02;;;;;;;18.00;11.07;;;17.60;99.90;;;;;;5133764;28;20615;-82
2023/09/10 02:26:30;;;;;;;16.43;11.13;;;17.60;99.90;;;;;;5131305;28;20458;-81
2023/09/10 02:28:57;;;;;;;19.27;10.67;;;17.70;99.90;;;;;;5118727;28;20430;-80
2023/09/10 02:31:25;;;;;;;15.07;11.30;;;17.40;99.90;;;;;;5132524;28;20502;-81
2023/09/10 02:33:53;;;;;;;18.33;11.43;;;17.50;99.90;;;;;;5133464;28;20429;-81
2023/09/10 02:36:20;;;;;;;16.23;10.77;;;17.50;99.90;;;;;;5133420;28;20458;-81
2023/09/10 02:38:46;;;;;;;16.60;10.97;;;17.40;99.90;;;;;;5133109;28;20437;-80
2023/09/10 02:41:13;;;;;;;14.90;10.60;;;17.40;99.90;;;;;;5133707;28;20429;-82
2023/09/10 02:43:41;;;;;;;16.33;11.13;;;17.40;99.90;;;;;;5132966;28;20438;-80
2023/09/10 02:46:07;;;;;;;15.80;11.17;;;17.50;99.90;;;;;;5125682;28;20454;-82
2023/09/10 02:48:34;;;;;;;18.53;11.30;;;17.40;99.90;;;;;;5123684;28;20468;-81
2023/09/10 02:51:01;;;;;;;14.53;11.47;;;17.40;99.90;;;;;;5144159;27;20498;-82
2023/09/10 02:53:27;;;;;;;16.53;11.57;;;17.40;99.90;;;;;;5153742;27;20467;-78
2023/09/10 02:56:00;;;;;;;14.03;10.93;;;17.40;99.90;;;;;;5153571;27;20433;-81
2023/09/10 02:58:27;;;;;;;18.00;11.50;;;17.30;99.90;;;;;;5153844;27;20403;-81
2023/09/10 03:00:55;;;;;;;20.40;11.63;;;17.30;99.90;;;;;;5153517;27;20430;-80
2023/09/10 03:03:23;;;;;;;19.20;11.77;;;17.30;99.90;;;;;;5140713;28;20472;-78
2023/09/10 03:05:50;;;;;;;21.40;13.10;;;17.30;99.90;;;;;;5140273;28;20412;-82
2023/09/10 03:08:17;;;;;;;20.23;12.23;;;17.30;99.90;;;;;;5140155;28;20441;-84
2023/09/10 03:10:43;;;;;;;19.60;12.23;;;17.30;99.90;;;;;;5139710;28;20507;-80
2023/09/10 03:13:10;;;;;;;13.67;11.30;;;17.30;99.90;;;;;;5123617;28;20435;-82
2023/09/10 03:15:37;;;;;;;20.80;12.10;;;17.30;99.90;;;;;;5138689;28;20485;-77
2023/09/10 03:18:05;;;;;;;17.63;11.53;;;17.30;99.90;;;;;;5139567;28;20425;-84
2023/09/10 03:20:32;;;;;;;17.03;11.63;;;17.30;99.90;;;;;;5139317;28;20483;-81
2023/09/10 03:22:59;;;;;;;17.90;12.70;;;17.20;99.90;;;;;;5138022;28;20415;-78
2023/09/10 03:25:25;;;;;;;17.93;11.40;;;17.30;99.90;;;;;;5136823;28;20443;-79
2023/09/10 03:27:52;;;;;;;16.63;12.70;;;17.10;99.90;;;;;;5137910;28;20424;-79
2023/09/10 03:30:19;;;;;;;20.00;12.43;;;17.10;99.90;;;;;;5139057;27;20755;-79
2023/09/10 03:32:50;;;;;;;18.20;12.20;;;17.00;99.90;;;;;;5139349;28;20428;-84
2023/09/10 03:35:18;;;;;;;16.33;13.70;;;17.00;99.90;;;;;;5139388;28;20404;-82
2023/09/10 03:37:46;;;;;;;18.07;12.00;;;17.10;99.90;;;;;;5138881;28;20416;-82
2023/09/10 03:40:14;;;;;;;23.30;12.70;;;16.90;99.90;;;;;;5139420;28;20426;-82
2023/09/10 03:42:41;;;;;;;23.70;11.73;;;16.90;99.90;;;;;;5135766;28;20482;-82
2023/09/10 03:45:10;;;;;;;22.07;12.30;;;16.90;99.90;;;;;;5125836;28;20433;-82
2023/09/10 03:47:38;;;;;;;15.43;11.03;;;16.90;99.90;;;;;;5137959;28;20913;-81
2023/09/10 03:50:05;;;;;;;21.80;11.77;;;17.00;99.90;;;;;;5139612;28;20444;-83
2023/09/10 03:52:33;;;;;;;19.20;12.13;;;16.80;99.90;;;;;;5139092;28;20493;-82
2023/09/10 03:55:00;;;;;;;32.53;12.73;;;16.90;99.90;;;;;;5138981;28;20416;-81
2023/09/10 03:57:27;;;;;;;13.30;10.60;;;16.80;99.90;;;;;;5138385;28;20430;-82
2023/09/10 03:59:53;;;;;;;18.10;11.70;;;16.80;99.90;;;;;;5139190;28;20424;-83
2023/09/10 04:02:20;;;;;;;18.93;11.70;;;16.80;99.90;;;;;;5138582;28;20484;-82
2023/09/10 04:04:47;;;;;;;22.27;12.73;;;16.80;99.90;;;;;;5138636;28;20457;-81
2023/09/10 04:07:14;;;;;;;18.63;12.23;;;16.80;99.90;;;;;;5138290;28;20432;-81
2023/09/10 04:09:42;;;;;;;19.60;11.60;;;16.80;99.90;;;;;;5138763;28;20483;-81
2023/09/10 04:12:09;;;;;;;18.33;11.77;;;16.80;99.90;;;;;;5137980;28;20489;-80
2023/09/10 04:14:36;;;;;;;16.47;11.87;;;16.80;99.90;;;;;;5137634;28;20501;-83
2023/09/10 04:17:03;;;;;;;18.43;12.80;;;16.80;99.90;;;;;;5138291;28;20420;-81
2023/09/10 04:19:29;;;;;;;19.00;11.70;;;16.80;99.90;;;;;;5138116;28;20415;-82
2023/09/10 04:21:56;;;;;;;24.70;12.57;;;16.80;99.90;;;;;;5138161;28;20444;-81
2023/09/10 04:24:23;;;;;;;18.07;11.40;;;16.80;99.90;;;;;;5138013;28;20420;-83
2023/09/10 04:26:51;;;;;;;30.80;13.30;;;16.70;99.90;;;;;;5137782;28;20418;-81
2023/09/10 04:29:18;;;;;;;16.70;13.17;;;16.70;99.90;;;;;;5138332;28;20416;-82
2023/09/10 04:31:45;;;;;;;19.57;13.73;;;16.80;99.90;;;;;;5137932;28;20473;-80
2023/09/10 04:34:11;;;;;;;17.20;13.87;;;16.60;99.90;;;;;;5137917;28;20424;-82
2023/09/10 04:36:38;;;;;;;18.00;11.93;;;16.60;99.90;;;;;;5137313;28;20455;-81
2023/09/10 04:39:08;;;;;;;15.83;11.80;;;16.60;99.90;;;;;;5137581;28;20409;-81
2023/09/10 04:41:35;;;;;;;17.17;12.63;;;16.60;99.90;;;;;;5137633;28;20466;-82
2023/09/10 04:44:03;;;;;;;20.50;12.43;;;16.60;99.90;;;;;;5137914;28;20472;-80
2023/09/10 04:46:30;;;;;;;18.20;12.80;;;16.60;99.90;;;;;;5136942;28;20521;-80
2023/09/10 04:48:58;;;;;;;18.93;12.10;;;16.50;99.90;;;;;;5136772;28;20447;-82
2023/09/10 04:51:24;;;;;;;17.60;11.97;;;16.50;99.90;;;;;;5137379;28;20475;-81
2023/09/10 04:53:51;;;;;;;21.37;12.40;;;16.50;99.90;;;;;;5137635;27;20411;-81
2023/09/10 04:56:18;;;;;;;21.83;12.80;;;16.40;99.90;;;;;;5137707;28;20456;-82
2023/09/10 04:58:45;;;;;;;17.33;12.70;;;16.50;99.90;;;;;;5129125;28;20467;-82
2023/09/10 05:01:14;;;;;;;16.27;12.37;;;16.40;99.90;;;;;;5137298;28;20484;-82
2023/09/10 05:03:41;;;;;;;17.50;13.30;;;16.60;99.90;;;;;;5136821;28;20454;-82
2023/09/10 05:06:08;;;;;;;17.40;12.30;;;16.50;99.90;;;;;;5137172;28;20424;-82
2023/09/10 05:08:35;;;;;;;18.13;13.27;;;16.50;99.90;;;;;;5120254;28;20496;-81
2023/09/10 05:11:02;;;;;;;25.70;14.30;;;16.50;99.90;;;;;;5137368;28;20490;-81
2023/09/10 05:13:29;;;;;;;20.57;13.70;;;16.60;99.90;;;;;;5137003;28;20427;-79
2023/09/10 05:15:57;;;;;;;19.93;12.17;;;16.60;99.90;;;;;;5136317;28;20449;-82
2023/09/10 05:18:25;;;;;;;21.50;13.00;;;16.60;99.90;;;;;;5137207;28;20422;-81
2023/09/10 05:20:53;;;;;;;23.00;13.27;;;16.60;99.90;;;;;;5137177;28;20423;-81
2023/09/10 05:23:19;;;;;;;20.43;13.27;;;16.60;99.90;;;;;;5125747;28;20441;-76
2023/09/10 05:25:46;;;;;;;25.57;13.27;;;16.70;99.90;;;;;;5103640;28;20429;-76
2023/09/10 05:28:13;;;;;;;19.83;13.43;;;16.70;99.90;;;;;;5111720;28;20420;-77
2023/09/10 05:30:39;;;;;;;19.97;13.27;;;16.70;99.90;;;;;;5111830;28;20450;-77
2023/09/10 05:33:06;;;;;;;18.97;13.37;;;16.80;99.90;;;;;;5111759;28;20517;-76
2023/09/10 05:35:34;;;;;;;16.43;12.47;;;16.90;99.90;;;;;;5133788;28;20454;-79
2023/09/10 05:38:00;;;;;;;20.60;13.83;;;17.10;99.90;;;;;;5135487;28;20449;-80
2023/09/10 05:40:27;;;;;;;24.27;14.30;;;17.40;99.90;;;;;;5125729;28;20420;-76
2023/09/10 05:42:54;;;;;;;19.80;14.40;;;17.50;99.90;;;;;;5124844;28;20466;-79
2023/09/10 05:45:20;;;;;;;21.30;13.60;;;17.70;99.90;;;;;;5124944;28;20438;-76
2023/09/10 05:47:47;;;;;;;18.83;14.97;;;17.90;99.90;;;;;;5112999;28;20446;-79
2023/09/10 05:50:14;;;;;;;25.47;14.73;;;18.10;99.90;;;;;;5114167;28;20954;-78
2023/09/10 05:52:42;;;;;;;24.73;16.50;;;18.40;99.90;;;;;;5125714;28;20538;-76
2023/09/10 05:55:09;;;;;;;21.13;15.17;;;18.70;99.90;;;;;;5124703;28;20432;-79
2023/09/10 05:57:35;;;;;;;26.97;16.53;;;18.90;99.90;;;;;;5111483;28;20901;-77
2023/09/10 06:00:03;;;;;;;24.50;15.00;;;19.10;99.90;;;;;;5111845;28;20453;-77
2023/09/10 06:02:29;;;;;;;21.43;15.30;;;19.30;99.90;;;;;;5126171;28;20542;-77
2023/09/10 06:04:56;;;;;;;20.83;14.20;;;19.60;99.90;;;;;;5121574;28;20454;-77
2023/09/10 06:07:23;;;;;;;18.90;14.00;;;19.50;99.90;;;;;;5122057;28;20806;-76
2023/09/10 06:09:51;;;;;;;19.10;12.70;;;19.70;99.90;;;;;;5119401;28;20458;-76
2023/09/10 06:12:17;;;;;;;15.07;10.93;;;20.00;99.90;;;;;;5121595;28;20485;-77
2023/09/10 06:14:44;;;;;;;13.90;11.47;;;20.20;99.90;;;;;;5122202;28;20745;-77
2023/09/10 06:17:10;;;;;;;13.77;11.60;;;20.50;99.90;;;;;;5125158;28;20483;-78
2023/09/10 06:19:37;;;;;;;16.07;11.77;;;20.80;99.90;;;;;;5122236;28;20461;-79
2023/09/10 06:22:04;;;;;;;17.40;12.63;;;21.00;99.90;;;;;;5123824;28;20477;-79
2023/09/10 06:24:31;;;;;;;15.30;12.33;;;21.30;99.90;;;;;;5121909;28;20581;-77
2023/09/10 06:26:59;;;;;;;22.00;13.73;;;21.50;99.90;;;;;;5122891;28;20454;-79
2023/09/10 06:29:25;;;;;;;14.47;11.47;;;21.90;99.90;;;;;;5124537;28;20453;-77
2023/09/10 06:31:52;;;;;;;19.00;11.80;;;22.20;99.90;;;;;;5126125;28;20496;-77
2023/09/10 06:34:19;;;;;;;20.20;11.87;;;22.50;99.90;;;;;;5123511;28;20445;-77
2023/09/10 06:36:45;;;;;;;14.73;11.07;;;22.80;99.90;;;;;;5122133;28;20442;-78
2023/09/10 06:39:12;;;;;;;15.23;12.30;;;23.00;99.90;;;;;;5125703;28;20457;-77
2023/09/10 06:41:39;;;;;;;17.40;12.13;;;23.20;99.90;;;;;;5127612;28;20466;-77
2023/09/10 06:44:07;;;;;;;18.80;12.17;;;23.20;99.90;;;;;;5125853;28;20468;-77
2023/09/10 06:46:33;;;;;;;14.63;12.60;;;23.30;99.90;;;;;;5124204;28;20514;-77
2023/09/10 06:49:00;;;;;;;16.90;11.53;;;23.50;99.90;;;;;;5122028;28;20872;-78
2023/09/10 06:51:27;;;;;;;17.53;12.13;;;23.80;99.90;;;;;;5122155;28;20968;-77
2023/09/10 06:53:54;;;;;;;20.33;12.37;;;23.90;99.90;;;;;;5118286;28;20499;-77
2023/09/10 06:56:21;;;;;;;20.37;12.07;;;24.10;99.90;;;;;;5123827;28;20503;-78
2023/09/10 06:58:48;;;;;;;13.70;11.37;;;24.30;99.90;;;;;;5123512;28;20442;-77
2023/09/10 07:01:18;;;;;;;15.30;11.97;;;24.40;99.90;;;;;;5123871;28;20480;-77
2023/09/10 07:03:45;;;;;;;20.03;12.67;;;24.30;99.90;;;;;;5123360;28;20445;-77
2023/09/10 07:06:12;;;;;;;17.57;12.37;;;24.30;99.90;;;;;;5124524;28;20433;-77
2023/09/10 07:08:39;;;;;;;17.03;12.30;;;24.20;99.90;;;;;;5123386;28;20438;-77
2023/09/10 07:11:05;;;;;;;15.87;11.90;;;24.00;99.90;;;;;;5122585;28;20469;-78
2023/09/10 07:13:34;;;;;;;15.10;11.77;;;23.90;99.90;;;;;;5123063;28;20519;-77
2023/09/10 07:16:00;;;;;;;16.80;11.83;;;24.00;99.90;;;;;;5122971;28;20454;-77
2023/09/10 07:18:32;;;;;;;20.30;11.60;;;24.10;99.90;;;;;;5123881;28;20449;-77
2023/09/10 07:20:59;;;;;;;13.83;10.77;;;24.30;99.90;;;;;;5124883;28;20531;-77
2023/09/10 07:23:26;;;;;;;13.13;10.03;;;24.60;99.90;;;;;;5122754;28;20822;-77
2023/09/10 07:25:53;;;;;;;13.27;10.90;;;24.80;99.90;;;;;;5122584;28;20453;-77
2023/09/10 07:28:19;;;;;;;17.47;10.90;;;25.00;99.90;;;;;;5122473;28;20807;-78
2023/09/10 07:30:46;;;;;;;16.60;10.93;;;25.20;99.90;;;;;;5123742;28;20446;-78
2023/09/10 07:33:13;;;;;;;21.13;10.60;;;25.30;99.90;;;;;;5122988;28;20906;-77
2023/09/10 07:35:41;;;;;;;11.27;9.67;;;25.50;99.90;;;;;;5122915;28;20454;-77
2023/09/10 07:38:07;;;;;;;13.50;10.50;;;25.30;99.90;;;;;;5123808;28;21015;-77
2023/09/10 07:40:34;;;;;;;14.00;10.10;;;25.40;99.90;;;;;;5124307;28;20471;-77
2023/09/10 07:43:02;;;;;;;14.67;9.93;;;25.40;99.90;;;;;;5124623;28;20441;-79
2023/09/10 07:45:29;;;;;;;12.53;9.83;;;25.60;99.90;;;;;;5125689;28;20458;-80
2023/09/10 07:47:56;;;;;;;13.77;10.13;;;25.80;99.90;;;;;;5122401;28;20450;-79
2023/09/10 07:50:23;;;;;;;15.77;9.73;;;25.90;99.90;;;;;;5126269;28;20552;-78
2023/09/10 07:52:51;;;;;;;12.80;8.90;;;26.00;99.90;;;;;;5128001;28;20499;-77
2023/09/10 07:55:18;;;;;;;13.60;8.57;;;26.20;99.90;;;;;;5126336;28;20442;-77
2023/09/10 07:57:44;;;;;;;14.20;9.63;;;26.30;99.90;;;;;;5127276;28;20445;-79
2023/09/10 08:00:12;;;;;;;13.70;9.60;;;26.50;99.90;;;;;;5118080;28;20450;-78
2023/09/10 08:02:39;;;;;;;15.53;9.30;;;26.70;99.90;;;;;;5126697;28;20511;-77
2023/09/10 08:05:06;;;;;;;14.77;8.97;;;26.80;99.90;;;;;;5128162;28;20454;-77
2023/09/10 08:07:33;;;;;;;14.57;8.70;;;27.10;99.90;;;;;;5127461;28;20449;-77
2023/09/10 08:10:01;;;;;;;22.73;9.00;;;27.40;99.90;;;;;;5129447;28;20512;-76
2023/09/10 08:12:28;;;;;;;9.10;8.13;;;27.70;99.90;;;;;;5130070;28;20496;-79
2023/09/10 08:14:55;;;;;;;15.33;8.20;;;27.90;99.90;;;;;;5129192;28;20521;-78
2023/09/10 08:17:21;;;;;;;12.60;8.43;;;28.10;99.90;;;;;;5127438;28;20456;-77
2023/09/10 08:19:48;;;;;;;21.33;9.00;;;28.10;99.90;;;;;;5128338;28;20965;-77
2023/09/10 08:22:16;;;;;;;23.93;9.27;;;28.00;99.90;;;;;;5128381;28;20465;-77
2023/09/10 08:24:43;;;;;;;19.90;9.13;;;28.10;99.90;;;;;;5128395;28;20438;-80
2023/09/10 08:27:13;;;;;;;13.20;8.80;;;28.10;99.90;;;;;;5129486;28;20847;-79
2023/09/10 08:29:39;;;;;;;21.93;9.30;;;28.50;99.90;;;;;;5130785;28;20446;-78
2023/09/10 08:32:06;;;;;;;17.30;8.90;;;28.50;99.90;;;;;;5129040;28;20490;-77
2023/09/10 08:34:33;;;;;;;9.90;8.67;;;28.60;99.90;;;;;;5120609;28;20785;-78
2023/09/10 08:37:02;;;;;;;11.80;8.93;;;28.70;99.90;;;;;;5117042;28;20450;-78
2023/09/10 08:39:29;;;;;;;14.03;9.10;;;28.90;99.90;;;;;;5119225;28;20478;-77
2023/09/10 08:42:06;;;;;;;10.00;8.73;;;29.00;99.90;;;;;;5118607;28;20473;-77
2023/09/10 08:44:35;;;;;;;13.73;8.93;;;28.90;99.90;;;;;;5112506;28;21020;-77
2023/09/10 08:47:03;;;;;;;9.77;8.43;;;29.10;99.90;;;;;;5132340;28;20460;-79
2023/09/10 08:49:34;;;;;;;13.27;9.33;;;29.10;99.90;;;;;;5137163;28;20441;-80
2023/09/10 08:52:01;;;;;;;20.93;9.90;;;28.90;99.90;;;;;;5127570;28;20489;-78
2023/09/10 08:54:28;;;;;;;15.77;10.10;;;28.90;99.90;;;;;;5118993;28;20893;-77
2023/09/10 08:56:56;;;;;;;12.80;8.73;;;28.90;99.90;;;;;;5119516;28;20453;-77
2023/09/10 08:59:23;;;;;;;22.87;10.37;;;28.80;99.90;;;;;;5119353;28;20950;-78
2023/09/10 09:01:51;;;;;;;16.33;10.33;;;28.90;99.90;;;;;;5118272;28;20882;-78
2023/09/10 09:04:18;;;;;;;13.97;9.20;;;29.10;99.90;;;;;;5119113;28;20442;-78
2023/09/10 09:06:52;;;;;;;15.17;9.00;;;29.20;99.90;;;;;;5109947;28;20803;-79
2023/09/10 09:09:21;;;;;;;11.00;8.90;;;29.20;99.90;;;;;;5119298;28;20450;-78
2023/09/10 09:11:49;;;;;;;16.87;9.23;;;29.00;99.90;;;;;;5117621;28;20466;-78
2023/09/10 09:14:18;;;;;;;15.90;8.10;;;28.80;99.90;;;;;;5118787;28;20485;-77
2023/09/10 09:16:47;;;;;;;11.03;8.77;;;28.80;99.90;;;;;;5120077;28;20454;-77
2023/09/10 09:19:18;;;;;;;14.33;8.73;;;29.10;99.90;;;;;;5120563;28;20450;-77
2023/09/10 09:21:47;;;;;;;13.43;8.60;;;29.30;99.90;;;;;;5119128;28;20865;-78
2023/09/10 09:24:15;;;;;;;18.40;9.40;;;29.30;99.90;;;;;;5119709;28;20434;-78
2023/09/10 09:26:41;;;;;;;16.60;8.83;;;29.30;99.90;;;;;;5121670;28;20457;-77
2023/09/10 09:29:08;;;;;;;12.67;8.23;;;29.30;99.90;;;;;;5123612;28;20442;-78
2023/09/10 09:31:35;;;;;;;18.53;9.40;;;29.30;99.90;;;;;;5119860;28;20468;-77
2023/09/10 09:34:02;;;;;;;13.23;8.57;;;29.40;99.90;;;;;;5118923;28;20489;-77
2023/09/10 09:36:33;;;;;;;14.10;8.50;;;29.70;99.90;;;;;;5121204;28;21001;-78
2023/09/10 09:39:04;;;;;;;12.20;8.33;;;29.90;99.90;;;;;;5122581;28;20461;-77
2023/09/10 09:41:35;;;;;;;14.90;8.70;;;30.00;99.90;;;;;;5120079;28;20462;-77
2023/09/10 09:44:03;;;;;;;22.93;9.53;;;30.00;99.90;;;;;;5119369;28;20863;-78
2023/09/10 09:46:32;;;;;;;19.67;7.57;;;30.20;99.90;;;;;;5118410;28;20507;-77
2023/09/10 09:48:58;;;;;;;19.63;9.00;;;30.10;99.90;;;;;;5116634;28;20517;-78
2023/09/10 09:51:25;;;;;;;21.47;8.67;;;30.10;99.90;;;;;;5120361;28;20486;-78
2023/09/10 09:53:53;;;;;;;17.80;7.63;;;30.00;99.90;;;;;;5101089;28;20533;-78
2023/09/10 09:56:21;;;;;;;14.67;7.70;;;30.00;99.90;;;;;;5111159;28;20484;-77
2023/09/10 09:58:47;;;;;;;23.93;8.43;;;30.20;99.90;;;;;;5120479;28;20463;-78
2023/09/10 10:01:14;;;;;;;14.17;9.17;;;30.20;99.90;;;;;;5117509;28;20495;-77
2023/09/10 10:03:41;;;;;;;15.97;8.97;;;30.20;99.90;;;;;;5114170;28;20582;-77
2023/09/10 10:06:08;;;;;;;20.30;8.63;;;30.30;99.90;;;;;;5116088;28;20498;-77
2023/09/10 10:08:37;;;;;;;19.20;8.70;;;30.60;99.90;;;;;;5120048;28;20457;-78
2023/09/10 10:11:05;;;;;;;19.67;8.40;;;31.00;99.90;;;;;;5124190;28;20506;-78
2023/09/10 10:13:33;;;;;;;12.67;7.40;;;30.90;99.90;;;;;;5124462;28;20486;-77
2023/09/10 10:15:59;;;;;;;23.23;8.87;;;30.80;99.90;;;;;;5122481;28;20514;-77
2023/09/10 10:18:27;;;;;;;9.43;7.50;;;30.50;99.90;;;;;;5122298;28;20514;-77
2023/09/10 10:20:55;;;;;;;13.50;7.80;;;30.70;99.90;;;;;;5127476;28;20532;-78
2023/09/10 10:23:22;;;;;;;19.67;7.23;;;30.60;99.90;;;;;;5126242;28;20450;-78
2023/09/10 10:25:49;;;;;;;18.13;8.07;;;30.50;99.90;;;;;;5123656;28;20453;-78
2023/09/10 10:28:17;;;;;;;12.10;8.10;;;30.50;99.90;;;;;;5127683;28;20463;-77
2023/09/10 10:30:50;;;;;;;13.30;7.17;;;30.60;99.90;;;;;;5128183;28;20467;-78
2023/09/10 10:33:18;;;;;;;15.20;7.43;;;30.90;99.90;;;;;;5128593;28;20489;-78
2023/09/10 10:35:55;;;;;;;15.60;8.07;;;31.20;99.90;;;;;;5128189;28;20457;-78
2023/09/10 10:38:23;;;;;;;20.00;7.90;;;31.40;99.90;;;;;;5130260;28;20513;-78
2023/09/10 10:40:53;;;;;;;16.13;7.30;;;31.30;99.90;;;;;;5128463;28;20449;-78
2023/09/10 10:43:27;;;;;;;16.17;7.77;;;30.90;99.90;;;;;;5127083;28;20441;-79
2023/09/10 10:45:56;;;;;;;15.73;7.60;;;31.00;99.90;;;;;;5126704;28;20483;-78
2023/09/10 10:48:26;;;;;;;16.70;8.23;;;31.10;99.90;;;;;;5126477;28;20441;-79
2023/09/10 10:50:57;;;;;;;14.30;7.50;;;31.00;99.90;;;;;;5127616;28;20499;-79
2023/09/10 10:53:25;;;;;;;23.03;7.07;;;31.00;99.90;;;;;;5130617;28;20492;-78
2023/09/10 10:55:55;;;;;;;14.90;7.50;;;31.30;99.90;;;;;;5128453;28;20442;-78
2023/09/10 10:58:24;;;;;;;15.93;6.63;;;31.90;99.90;;;;;;5127276;28;20449;-79
2023/09/10 11:00:52;;;;;;;15.53;8.33;;;32.20;99.90;;;;;;5127108;28;20858;-79
2023/09/10 11:03:20;;;;;;;24.90;8.33;;;32.50;99.90;;;;;;5118968;28;20476;-78
2023/09/10 11:06:08;;;;;;;19.60;8.03;;;32.50;99.90;;;;;;5125760;28;20460;-79
2023/09/10 11:08:37;;;;;;;10.30;6.50;;;32.90;99.90;;;;;;5126672;28;20454;-78
2023/09/10 11:11:05;;;;;;;21.23;7.40;;;32.80;99.90;;;;;;5125465;28;20535;-79
2023/09/10 11:13:33;;;;;;;13.53;7.00;;;32.60;99.90;;;;;;5125326;28;20477;-79
2023/09/10 11:16:15;;;;;;;16.93;6.80;;;32.70;99.90;;;;;;5122617;28;20446;-78
2023/09/10 11:18:42;;;;;;;19.30;6.63;;;33.00;99.90;;;;;;5120406;28;20487;-78
2023/09/10 11:21:11;;;;;;;22.73;7.77;;;33.00;99.90;;;;;;5120348;28;20461;-78
2023/09/10 11:23:39;;;;;;;13.47;6.77;;;33.40;99.90;;;;;;5125598;28;20484;-78
2023/09/10 11:26:33;;;;;;;16.80;7.23;;;33.30;99.90;;;;;;5127239;28;20469;-78
2023/09/10 11:29:04;;;;;;;23.67;6.80;;;32.90;99.90;;;;;;5124776;28;20821;-77
2023/09/10 11:31:39;;;;;;;14.03;6.43;;;33.00;99.90;;;;;;5125679;28;20540;-79
2023/09/10 11:34:39;;;;;;;15.50;6.03;;;33.30;99.90;;;;;;5125264;28;20485;-78
2023/09/10 11:37:08;;;;;;;22.87;7.40;;;33.40;99.90;;;;;;5126721;28;20450;-78
2023/09/10 11:39:36;;;;;;;23.23;6.17;;;33.50;99.90;;;;;;5129719;28;21015;-78
2023/09/10 11:42:04;;;;;;;20.77;7.57;;;33.20;99.90;;;;;;5125463;28;21061;-78
2023/09/10 11:44:32;;;;;;;15.13;6.60;;;33.30;99.90;;;;;;5127350;28;20492;-79
2023/09/10 11:46:59;;;;;;;21.57;6.27;;;33.70;99.90;;;;;;5128219;28;20445;-80
2023/09/10 11:49:26;;;;;;;15.17;6.50;;;33.60;99.90;;;;;;5126002;28;20935;-78
2023/09/10 11:51:55;;;;;;;20.90;7.00;;;33.40;99.90;;;;;;5127191;28;20499;-78
2023/09/10 11:54:22;;;;;;;31.37;6.70;;;32.90;99.90;;;;;;5123614;28;20535;-79
2023/09/10 11:56:50;;;;;;;20.87;7.17;;;32.80;99.90;;;;;;5123149;28;20450;-78
2023/09/10 11:59:17;;;;;;;17.57;7.03;;;33.00;99.90;;;;;;5122458;28;20450;-79
2023/09/10 12:01:45;;;;;;;17.87;6.67;;;32.90;99.90;;;;;;5113537;28;20539;-78
2023/09/10 12:04:13;;;;;;;19.57;6.73;;;32.70;99.90;;;;;;5119414;28;20676;-78
2023/09/10 12:06:40;;;;;;;33.17;6.47;;;33.00;99.90;;;;;;5123821;28;20958;-78
2023/09/10 12:09:07;;;;;;;33.50;7.60;;;33.20;99.90;;;;;;5126145;28;20526;-78
2023/09/10 12:11:37;;;;;;;26.30;6.80;;;33.20;99.90;;;;;;5124434;28;20492;-78
2023/09/10 12:14:05;;;;;;;24.80;6.13;;;33.20;99.90;;;;;;5127471;28;20489;-78
2023/09/10 12:16:32;;;;;;;32.13;8.00;;;33.10;99.90;;;;;;5122160;28;20453;-79
2023/09/10 12:19:00;;;;;;;25.20;6.27;;;33.10;99.90;;;;;;5122474;28;20449;-79
2023/09/10 12:21:27;;;;;;;25.93;6.77;;;33.40;99.90;;;;;;5123560;28;20478;-78
2023/09/10 12:23:54;;;;;;;30.63;6.63;;;33.60;99.90;;;;;;5122239;28;20446;-78
2023/09/10 12:26:21;;;;;;;33.63;6.60;;;33.70;99.90;;;;;;5124668;28;20453;-78
2023/09/10 12:28:50;;;;;;;34.50;7.47;;;33.60;99.90;;;;;;5116520;28;20446;-79
2023/09/10 12:31:17;;;;;;;29.67;7.70;;;33.60;99.90;;;;;;5125251;28;20477;-78
2023/09/10 12:33:45;;;;;;;21.63;6.80;;;33.80;99.90;;;;;;5123884;28;20482;-79
2023/09/10 12:36:14;;;;;;;25.27;6.60;;;33.80;99.90;;;;;;5122905;28;20503;-79